sensor_id;sensor_type;location;lat;lon;timestamp;temperature;humidity
25991;DHT22;13779;-33.886;151.198;2022-12-18T00:01:52;17.40;99.90
25991;DHT22;13779;-33.886;151.198;2022-12-18T00:04:26;17.20;99.90
25991;DHT22;13779;-33.886;151.198;2022-12-18T00:06:59;17.00;99.90
25991;DHT22;13779;-33.886;151.198;2022-12-18T00:09:32;16.90;99.90
25991;DHT22;13779;-33.886;151.198;2022-12-18T00:12:07;16.80;99.90
25991;DHT22;13779;-33.886;151.198;2022-12-18T00:14:45;16.70;99.90
25991;DHT22;13779;-33.886;151.198;2022-12-18T00:17:16;16.60;99.90
25991;DHT22;13779;-33.886;151.198;2022-12-18T00:19:47;16.70;99.90
25991;DHT22;13779;-33.886;151.198;2022-12-18T00:22:17;16.70;99.90
25991;DHT22;13779;-33.886;151.198;2022-12-18T00:24:48;16.60;99.90
25991;DHT22;13779;-33.886;151.198;2022-12-18T00:27:18;16.60;99.90
25991;DHT22;13779;-33.886;151.198;2022-12-18T00:29:48;16.60;99.90
25991;DHT22;13779;-33.886;151.198;2022-12-18T00:32:19;16.60;99.90
25991;DHT22;13779;-33.886;151.198;2022-12-18T00:34:49;16.80;99.90
25991;DHT22;13779;-33.886;151.198;2022-12-18T00:37:19;16.70;99.90
25991;DHT22;13779;-33.886;151.198;2022-12-18T00:39:49;16.70;99.90
25991;DHT22;13779;-33.886;151.198;2022-12-18T00:42:19;16.70;99.90
25991;DHT22;13779;-33.886;151.198;2022-12-18T00:45:07;16.80;99.90
25991;DHT22;13779;-33.886;151.198;2022-12-18T00:47:40;16.90;99.90
25991;DHT22;13779;-33.886;151.198;2022-12-18T00:50:14;17.00;99.90
25991;DHT22;13779;-33.886;151.198;2022-12-18T00:52:44;17.00;99.90
25991;DHT22;13779;-33.886;151.198;2022-12-18T00:55:15;17.10;99.90
25991;DHT22;13779;-33.886;151.198;2022-12-18T00:57:45;17.10;99.90
25991;DHT22;13779;-33.886;151.198;2022-12-18T01:00:15;17.00;99.90
25991;DHT22;13779;-33.886;151.198;2022-12-18T01:02:46;17.00;99.90
25991;DHT22;13779;-33.886;151.198;2022-12-18T01:05:16;16.80;99.90
25991;DHT22;13779;-33.886;151.198;2022-12-18T01:07:46;16.60;99.90
25991;DHT22;13779;-33.886;151.198;2022-12-18T01:10:16;16.60;99.90
25991;DHT22;13779;-33.886;151.198;2022-12-18T01:12:46;16.70;99.90
25991;DHT22;13779;-33.886;151.198;2022-12-18T01:15:17;16.70;99.90
25991;DHT22;13779;-33.886;151.198;2022-12-18T01:17:47;16.70;99.90
25991;DHT22;13779;-33.886;151.198;2022-12-18T01:20:17;16.70;99.90
25991;DHT22;13779;-33.886;151.198;2022-12-18T01:22:47;16.70;99.90
25991;DHT22;13779;-33.886;151.198;2022-12-18T01:25:18;16.70;99.90
25991;DHT22;13779;-33.886;151.198;2022-12-18T01:27:48;16.70;99.90
25991;DHT22;13779;-33.886;151.198;2022-12-18T01:30:19;16.60;99.90
25991;DHT22;13779;-33.886;151.198;2022-12-18T01:32:49;16.50;99.90
25991;DHT22;13779;-33.886;151.198;2022-12-18T01:35:19;16.50;99.90
25991;DHT22;13779;-33.886;151.198;2022-12-18T01:37:49;16.50;99.90
25991;DHT22;13779;-33.886;151.198;2022-12-18T01:40:24;16.50;99.90
25991;DHT22;13779;-33.886;151.198;2022-12-18T01:42:54;16.50;99.90
25991;DHT22;13779;-33.886;151.198;2022-12-18T01:45:30;16.50;99.90
25991;DHT22;13779;-33.886;151.198;2022-12-18T01:48:06;16.60;99.90
25991;DHT22;13779;-33.886;151.198;2022-12-18T01:50:40;16.70;99.90
25991;DHT22;13779;-33.886;151.198;2022-12-18T01:53:23;16.80;99.90
25991;DHT22;13779;-33.886;151.198;2022-12-18T01:55:56;16.70;99.90
25991;DHT22;13779;-33.886;151.198;2022-12-18T02:01:25;16.50;99.90
25991;DHT22;13779;-33.886;151.198;2022-12-18T02:03:56;16.50;99.90
25991;DHT22;13779;-33.886;151.198;2022-12-18T02:06:43;16.50;99.90
25991;DHT22;13779;-33.886;151.198;2022-12-18T02:09:18;16.40;99.90
25991;DHT22;13779;-33.886;151.198;2022-12-18T02:12:04;16.40;99.90
25991;DHT22;13779;-33.886;151.198;2022-12-18T02:15:00;16.40;99.90
25991;DHT22;13779;-33.886;151.198;2022-12-18T02:17:41;16.40;99.90
25991;DHT22;13779;-33.886;151.198;2022-12-18T02:20:35;16.60;99.90
25991;DHT22;13779;-33.886;151.198;2022-12-18T02:23:24;16.80;99.90
25991;DHT22;13779;-33.886;151.198;2022-12-18T02:28:49;17.00;99.90
25991;DHT22;13779;-33.886;151.198;2022-12-18T02:31:28;17.20;99.90
25991;DHT22;13779;-33.886;151.198;2022-12-18T02:34:01;17.40;99.90
25991;DHT22;13779;-33.886;151.198;2022-12-18T02:36:33;17.50;99.90
25991;DHT22;13779;-33.886;151.198;2022-12-18T02:39:07;17.70;99.90
25991;DHT22;13779;-33.886;151.198;2022-12-18T02:41:39;17.80;99.90
25991;DHT22;13779;-33.886;151.198;2022-12-18T02:44:12;17.90;99.90
25991;DHT22;13779;-33.886;151.198;2022-12-18T02:46:50;18.00;99.90
25991;DHT22;13779;-33.886;151.198;2022-12-18T03:03:35;18.30;99.90
25991;DHT22;13779;-33.886;151.198;2022-12-18T03:06:18;18.40;99.90
25991;DHT22;13779;-33.886;151.198;2022-12-18T03:09:07;18.50;99.90
25991;DHT22;13779;-33.886;151.198;2022-12-18T03:11:41;18.50;99.90
25991;DHT22;13779;-33.886;151.198;2022-12-18T03:14:33;18.60;99.90
25991;DHT22;13779;-33.886;151.198;2022-12-18T03:17:11;18.70;99.90
25991;DHT22;13779;-33.886;151.198;2022-12-18T03:19:44;18.70;99.90
25991;DHT22;13779;-33.886;151.198;2022-12-18T03:22:16;18.80;99.90
25991;DHT22;13779;-33.886;151.198;2022-12-18T03:24:49;18.90;99.90
25991;DHT22;13779;-33.886;151.198;2022-12-18T03:27:21;19.00;99.90
25991;DHT22;13779;-33.886;151.198;2022-12-18T03:30:04;19.00;99.90
25991;DHT22;13779;-33.886;151.198;2022-12-18T03:33:06;19.00;99.90
25991;DHT22;13779;-33.886;151.198;2022-12-18T03:35:41;18.90;99.90
25991;DHT22;13779;-33.886;151.198;2022-12-18T03:38:13;18.80;99.90
25991;DHT22;13779;-33.886;151.198;2022-12-18T03:43:35;18.50;99.90
25991;DHT22;13779;-33.886;151.198;2022-12-18T03:46:30;18.50;99.90
25991;DHT22;13779;-33.886;151.198;2022-12-18T03:49:13;18.30;99.90
25991;DHT22;13779;-33.886;151.198;2022-12-18T03:52:06;18.20;99.90
25991;DHT22;13779;-33.886;151.198;2022-12-18T03:54:39;18.20;99.90
25991;DHT22;13779;-33.886;151.198;2022-12-18T03:57:25;18.30;99.90
25991;DHT22;13779;-33.886;151.198;2022-12-18T04:00:12;18.30;99.90
25991;DHT22;13779;-33.886;151.198;2022-12-18T04:02:45;18.30;99.90
25991;DHT22;13779;-33.886;151.198;2022-12-18T04:05:19;18.30;99.90
25991;DHT22;13779;-33.886;151.198;2022-12-18T04:07:51;18.20;99.90
25991;DHT22;13779;-33.886;151.198;2022-12-18T04:10:23;18.30;99.90
25991;DHT22;13779;-33.886;151.198;2022-12-18T04:12:57;18.30;99.90
25991;DHT22;13779;-33.886;151.198;2022-12-18T04:15:27;18.30;99.90
25991;DHT22;13779;-33.886;151.198;2022-12-18T04:17:57;18.40;99.90
25991;DHT22;13779;-33.886;151.198;2022-12-18T04:20:27;18.50;99.90
25991;DHT22;13779;-33.886;151.198;2022-12-18T04:22:58;18.60;99.90
25991;DHT22;13779;-33.886;151.198;2022-12-18T04:25:28;18.70;99.90
25991;DHT22;13779;-33.886;151.198;2022-12-18T04:27:58;18.70;99.90
25991;DHT22;13779;-33.886;151.198;2022-12-18T04:30:29;18.70;99.90
25991;DHT22;13779;-33.886;151.198;2022-12-18T04:33:02;18.70;99.90
25991;DHT22;13779;-33.886;151.198;2022-12-18T04:35:36;18.70;99.90
25991;DHT22;13779;-33.886;151.198;2022-12-18T04:38:07;18.70;99.90
25991;DHT22;13779;-33.886;151.198;2022-12-18T04:40:40;18.70;99.90
25991;DHT22;13779;-33.886;151.198;2022-12-18T04:43:10;18.70;99.90
25991;DHT22;13779;-33.886;151.198;2022-12-18T04:45:40;18.70;99.90
25991;DHT22;13779;-33.886;151.198;2022-12-18T04:48:10;18.70;99.90
25991;DHT22;13779;-33.886;151.198;2022-12-18T04:50:41;18.60;99.90
25991;DHT22;13779;-33.886;151.198;2022-12-18T04:53:11;18.50;99.90
25991;DHT22;13779;-33.886;151.198;2022-12-18T04:55:41;18.50;99.90
25991;DHT22;13779;-33.886;151.198;2022-12-18T04:58:11;18.50;99.90
25991;DHT22;13779;-33.886;151.198;2022-12-18T05:00:44;18.50;99.90
25991;DHT22;13779;-33.886;151.198;2022-12-18T05:03:14;18.50;99.90
25991;DHT22;13779;-33.886;151.198;2022-12-18T05:05:48;18.60;99.90
25991;DHT22;13779;-33.886;151.198;2022-12-18T05:08:19;18.60;99.90
25991;DHT22;13779;-33.886;151.198;2022-12-18T05:10:49;18.70;99.90
25991;DHT22;13779;-33.886;151.198;2022-12-18T05:13:19;18.70;99.90
25991;DHT22;13779;-33.886;151.198;2022-12-18T05:15:52;18.80;99.90
25991;DHT22;13779;-33.886;151.198;2022-12-18T05:18:23;18.90;99.90
25991;DHT22;13779;-33.886;151.198;2022-12-18T05:20:54;18.80;99.90
25991;DHT22;13779;-33.886;151.198;2022-12-18T05:23:25;18.80;99.90
25991;DHT22;13779;-33.886;151.198;2022-12-18T05:26:00;18.90;99.90
25991;DHT22;13779;-33.886;151.198;2022-12-18T05:28:35;19.00;99.90
25991;DHT22;13779;-33.886;151.198;2022-12-18T05:31:06;19.00;99.90
25991;DHT22;13779;-33.886;151.198;2022-12-18T05:33:36;19.00;99.90
25991;DHT22;13779;-33.886;151.198;2022-12-18T05:36:08;18.90;99.90
25991;DHT22;13779;-33.886;151.198;2022-12-18T05:38:39;19.00;99.90
25991;DHT22;13779;-33.886;151.198;2022-12-18T05:41:10;18.90;99.90
25991;DHT22;13779;-33.886;151.198;2022-12-18T05:43:40;19.00;99.90
25991;DHT22;13779;-33.886;151.198;2022-12-18T05:46:15;18.90;99.90
25991;DHT22;13779;-33.886;151.198;2022-12-18T05:48:47;18.90;99.90
25991;DHT22;13779;-33.886;151.198;2022-12-18T05:51:22;18.90;99.90
25991;DHT22;13779;-33.886;151.198;2022-12-18T05:53:52;18.90;99.90
25991;DHT22;13779;-33.886;151.198;2022-12-18T05:56:23;18.90;99.90
25991;DHT22;13779;-33.886;151.198;2022-12-18T05:58:54;18.90;99.90
25991;DHT22;13779;-33.886;151.198;2022-12-18T06:01:26;18.90;99.90
25991;DHT22;13779;-33.886;151.198;2022-12-18T06:03:58;18.80;99.90
25991;DHT22;13779;-33.886;151.198;2022-12-18T06:06:29;18.80;99.90
25991;DHT22;13779;-33.886;151.198;2022-12-18T06:08:59;18.80;99.90
25991;DHT22;13779;-33.886;151.198;2022-12-18T06:11:30;18.80;99.90
25991;DHT22;13779;-33.886;151.198;2022-12-18T06:14:01;18.80;99.90
25991;DHT22;13779;-33.886;151.198;2022-12-18T06:16:31;18.70;99.90
25991;DHT22;13779;-33.886;151.198;2022-12-18T06:19:04;18.70;99.90
25991;DHT22;13779;-33.886;151.198;2022-12-18T06:21:34;18.60;99.90
25991;DHT22;13779;-33.886;151.198;2022-12-18T06:24:08;18.60;99.90
25991;DHT22;13779;-33.886;151.198;2022-12-18T06:26:39;18.60;99.90
25991;DHT22;13779;-33.886;151.198;2022-12-18T06:29:10;18.50;99.90
25991;DHT22;13779;-33.886;151.198;2022-12-18T06:31:40;18.60;99.90
25991;DHT22;13779;-33.886;151.198;2022-12-18T06:34:11;18.50;99.90
25991;DHT22;13779;-33.886;151.198;2022-12-18T06:36:42;18.50;99.90
25991;DHT22;13779;-33.886;151.198;2022-12-18T06:39:12;18.50;99.90
25991;DHT22;13779;-33.886;151.198;2022-12-18T06:41:43;18.60;99.90
25991;DHT22;13779;-33.886;151.198;2022-12-18T06:44:14;18.60;99.90
25991;DHT22;13779;-33.886;151.198;2022-12-18T06:46:47;18.70;99.90
25991;DHT22;13779;-33.886;151.198;2022-12-18T06:49:17;18.70;99.90
25991;DHT22;13779;-33.886;151.198;2022-12-18T06:51:52;18.60;99.90
25991;DHT22;13779;-33.886;151.198;2022-12-18T06:54:22;18.60;99.90
25991;DHT22;13779;-33.886;151.198;2022-12-18T06:56:56;18.50;99.90
25991;DHT22;13779;-33.886;151.198;2022-12-18T06:59:30;18.40;99.90
25991;DHT22;13779;-33.886;151.198;2022-12-18T07:02:00;18.40;99.90
25991;DHT22;13779;-33.886;151.198;2022-12-18T07:04:31;18.40;99.90
25991;DHT22;13779;-33.886;151.198;2022-12-18T07:07:02;18.50;99.90
25991;DHT22;13779;-33.886;151.198;2022-12-18T07:09:33;18.50;99.90
25991;DHT22;13779;-33.886;151.198;2022-12-18T07:12:04;18.50;99.90
25991;DHT22;13779;-33.886;151.198;2022-12-18T07:14:34;18.30;99.90
25991;DHT22;13779;-33.886;151.198;2022-12-18T07:17:12;18.30;99.90
25991;DHT22;13779;-33.886;151.198;2022-12-18T07:19:42;18.30;99.90
25991;DHT22;13779;-33.886;151.198;2022-12-18T07:22:13;18.30;99.90
25991;DHT22;13779;-33.886;151.198;2022-12-18T07:24:45;18.40;99.90
25991;DHT22;13779;-33.886;151.198;2022-12-18T07:27:15;18.30;99.90
25991;DHT22;13779;-33.886;151.198;2022-12-18T07:29:45;18.30;99.90
25991;DHT22;13779;-33.886;151.198;2022-12-18T07:32:15;18.30;99.90
25991;DHT22;13779;-33.886;151.198;2022-12-18T07:34:45;18.40;99.90
25991;DHT22;13779;-33.886;151.198;2022-12-18T07:37:16;18.30;99.90
25991;DHT22;13779;-33.886;151.198;2022-12-18T07:39:46;18.30;99.90
25991;DHT22;13779;-33.886;151.198;2022-12-18T07:42:16;18.30;99.90
25991;DHT22;13779;-33.886;151.198;2022-12-18T07:45:01;18.20;99.90
25991;DHT22;13779;-33.886;151.198;2022-12-18T07:47:34;18.10;99.90
25991;DHT22;13779;-33.886;151.198;2022-12-18T07:50:08;18.10;99.90
25991;DHT22;13779;-33.886;151.198;2022-12-18T07:52:38;18.10;99.90
25991;DHT22;13779;-33.886;151.198;2022-12-18T07:55:08;18.00;99.90
25991;DHT22;13779;-33.886;151.198;2022-12-18T07:57:38;18.00;99.90
25991;DHT22;13779;-33.886;151.198;2022-12-18T08:00:17;18.00;99.90
25991;DHT22;13779;-33.886;151.198;2022-12-18T08:02:48;17.90;99.90
25991;DHT22;13779;-33.886;151.198;2022-12-18T08:05:18;17.80;99.90
25991;DHT22;13779;-33.886;151.198;2022-12-18T08:07:50;17.80;99.90
25991;DHT22;13779;-33.886;151.198;2022-12-18T08:10:20;17.70;99.90
25991;DHT22;13779;-33.886;151.198;2022-12-18T08:12:51;17.80;99.90
25991;DHT22;13779;-33.886;151.198;2022-12-18T08:15:22;17.80;99.90
25991;DHT22;13779;-33.886;151.198;2022-12-18T08:17:55;17.80;99.90
25991;DHT22;13779;-33.886;151.198;2022-12-18T08:20:26;17.80;99.90
25991;DHT22;13779;-33.886;151.198;2022-12-18T08:22:56;17.80;99.90
25991;DHT22;13779;-33.886;151.198;2022-12-18T08:25:27;17.80;99.90
25991;DHT22;13779;-33.886;151.198;2022-12-18T08:27:58;17.80;99.90
25991;DHT22;13779;-33.886;151.198;2022-12-18T08:30:29;17.80;99.90
25991;DHT22;13779;-33.886;151.198;2022-12-18T08:32:59;17.80;99.90
25991;DHT22;13779;-33.886;151.198;2022-12-18T08:35:30;17.80;99.90
25991;DHT22;13779;-33.886;151.198;2022-12-18T08:38:09;17.70;99.90
25991;DHT22;13779;-33.886;151.198;2022-12-18T08:40:40;17.70;99.90
25991;DHT22;13779;-33.886;151.198;2022-12-18T08:43:11;17.70;99.90
25991;DHT22;13779;-33.886;151.198;2022-12-18T08:46:00;17.70;99.90
25991;DHT22;13779;-33.886;151.198;2022-12-18T08:48:30;17.70;99.90
25991;DHT22;13779;-33.886;151.198;2022-12-18T08:51:02;17.70;99.90
25991;DHT22;13779;-33.886;151.198;2022-12-18T08:53:32;17.60;99.90
25991;DHT22;13779;-33.886;151.198;2022-12-18T08:56:04;17.60;99.90
25991;DHT22;13779;-33.886;151.198;2022-12-18T08:58:34;17.20;99.90
25991;DHT22;13779;-33.886;151.198;2022-12-18T09:01:08;16.80;99.90
25991;DHT22;13779;-33.886;151.198;2022-12-18T09:03:39;16.60;99.90
25991;DHT22;13779;-33.886;151.198;2022-12-18T09:06:12;16.40;99.90
25991;DHT22;13779;-33.886;151.198;2022-12-18T09:08:44;16.30;99.90
25991;DHT22;13779;-33.886;151.198;2022-12-18T09:11:21;16.20;99.90
25991;DHT22;13779;-33.886;151.198;2022-12-18T09:13:55;16.10;99.90
25991;DHT22;13779;-33.886;151.198;2022-12-18T09:16:27;16.10;99.90
25991;DHT22;13779;-33.886;151.198;2022-12-18T09:19:00;16.00;99.90
25991;DHT22;13779;-33.886;151.198;2022-12-18T09:21:38;16.10;99.90
25991;DHT22;13779;-33.886;151.198;2022-12-18T09:24:15;16.10;99.90
25991;DHT22;13779;-33.886;151.198;2022-12-18T09:26:45;16.10;99.90
25991;DHT22;13779;-33.886;151.198;2022-12-18T09:29:19;16.10;99.90
25991;DHT22;13779;-33.886;151.198;2022-12-18T09:31:50;16.10;99.90
25991;DHT22;13779;-33.886;151.198;2022-12-18T09:34:20;16.10;99.90
25991;DHT22;13779;-33.886;151.198;2022-12-18T09:36:51;16.10;99.90
25991;DHT22;13779;-33.886;151.198;2022-12-18T09:39:22;16.20;99.90
25991;DHT22;13779;-33.886;151.198;2022-12-18T09:41:57;16.20;99.90
25991;DHT22;13779;-33.886;151.198;2022-12-18T09:47:13;16.20;99.90
25991;DHT22;13779;-33.886;151.198;2022-12-18T09:49:52;16.20;99.90
25991;DHT22;13779;-33.886;151.198;2022-12-18T09:52:30;16.20;99.90
25991;DHT22;13779;-33.886;151.198;2022-12-18T09:57:45;16.30;99.90
25991;DHT22;13779;-33.886;151.198;2022-12-18T10:00:22;16.30;99.90
25991;DHT22;13779;-33.886;151.198;2022-12-18T10:03:01;16.40;99.90
25991;DHT22;13779;-33.886;151.198;2022-12-18T10:08:33;16.50;99.90
25991;DHT22;13779;-33.886;151.198;2022-12-18T10:13:49;16.60;99.90
25991;DHT22;13779;-33.886;151.198;2022-12-18T10:16:27;16.50;99.90
25991;DHT22;13779;-33.886;151.198;2022-12-18T10:24:56;16.70;99.90
25991;DHT22;13779;-33.886;151.198;2022-12-18T10:27:30;16.80;99.90
25991;DHT22;13779;-33.886;151.198;2022-12-18T10:30:04;16.80;99.90
25991;DHT22;13779;-33.886;151.198;2022-12-18T10:32:36;16.80;99.90
25991;DHT22;13779;-33.886;151.198;2022-12-18T10:35:24;16.80;99.90
25991;DHT22;13779;-33.886;151.198;2022-12-18T10:38:07;16.80;99.90
25991;DHT22;13779;-33.886;151.198;2022-12-18T10:40:56;16.80;99.90
25991;DHT22;13779;-33.886;151.198;2022-12-18T10:43:35;16.70;99.90
25991;DHT22;13779;-33.886;151.198;2022-12-18T10:54:04;16.60;99.90
25991;DHT22;13779;-33.886;151.198;2022-12-18T10:56:37;16.50;99.90
25991;DHT22;13779;-33.886;151.198;2022-12-18T10:59:10;16.40;99.90
25991;DHT22;13779;-33.886;151.198;2022-12-18T11:04:22;16.30;99.90
25991;DHT22;13779;-33.886;151.198;2022-12-18T11:07:01;16.30;99.90
25991;DHT22;13779;-33.886;151.198;2022-12-18T11:09:34;16.30;99.90
25991;DHT22;13779;-33.886;151.198;2022-12-18T11:12:16;16.40;99.90
25991;DHT22;13779;-33.886;151.198;2022-12-18T11:14:51;16.40;99.90
25991;DHT22;13779;-33.886;151.198;2022-12-18T11:17:41;16.40;99.90
25991;DHT22;13779;-33.886;151.198;2022-12-18T11:20:36;16.30;99.90
25991;DHT22;13779;-33.886;151.198;2022-12-18T11:23:12;16.30;99.90
25991;DHT22;13779;-33.886;151.198;2022-12-18T11:25:52;16.30;99.90
25991;DHT22;13779;-33.886;151.198;2022-12-18T11:31:25;16.40;99.90
25991;DHT22;13779;-33.886;151.198;2022-12-18T11:36:50;16.30;99.90
25991;DHT22;13779;-33.886;151.198;2022-12-18T11:39:31;16.30;99.90
25991;DHT22;13779;-33.886;151.198;2022-12-18T11:42:37;16.20;99.90
25991;DHT22;13779;-33.886;151.198;2022-12-18T11:47:58;16.20;99.90
25991;DHT22;13779;-33.886;151.198;2022-12-18T11:50:51;16.20;99.90
25991;DHT22;13779;-33.886;151.198;2022-12-18T11:53:22;16.20;99.90
25991;DHT22;13779;-33.886;151.198;2022-12-18T11:58:47;16.30;99.90
25991;DHT22;13779;-33.886;151.198;2022-12-18T12:04:35;16.30;99.90
25991;DHT22;13779;-33.886;151.198;2022-12-18T12:15:32;16.40;99.90
25991;DHT22;13779;-33.886;151.198;2022-12-18T12:18:29;16.50;99.90
25991;DHT22;13779;-33.886;151.198;2022-12-18T12:24:35;16.40;99.90
25991;DHT22;13779;-33.886;151.198;2022-12-18T12:32:45;16.10;99.90
25991;DHT22;13779;-33.886;151.198;2022-12-18T12:35:23;16.20;99.90
25991;DHT22;13779;-33.886;151.198;2022-12-18T12:38:24;16.20;99.90
25991;DHT22;13779;-33.886;151.198;2022-12-18T12:41:05;16.20;99.90
25991;DHT22;13779;-33.886;151.198;2022-12-18T12:43:57;16.30;99.90
25991;DHT22;13779;-33.886;151.198;2022-12-18T12:46:32;16.30;99.90
25991;DHT22;13779;-33.886;151.198;2022-12-18T12:49:09;16.30;99.90
25991;DHT22;13779;-33.886;151.198;2022-12-18T12:51:48;16.30;99.90
25991;DHT22;13779;-33.886;151.198;2022-12-18T12:54:23;16.40;99.90
25991;DHT22;13779;-33.886;151.198;2022-12-18T12:57:26;16.40;99.90
25991;DHT22;13779;-33.886;151.198;2022-12-18T13:00:10;16.40;99.90
25991;DHT22;13779;-33.886;151.198;2022-12-18T13:03:08;16.40;99.90
25991;DHT22;13779;-33.886;151.198;2022-12-18T13:06:08;16.50;99.90
25991;DHT22;13779;-33.886;151.198;2022-12-18T13:08:58;16.50;99.90
25991;DHT22;13779;-33.886;151.198;2022-12-18T13:14:28;16.50;99.90
25991;DHT22;13779;-33.886;151.198;2022-12-18T13:20:11;16.40;99.90
25991;DHT22;13779;-33.886;151.198;2022-12-18T13:22:49;16.40;99.90
25991;DHT22;13779;-33.886;151.198;2022-12-18T13:30:51;16.50;99.90
25991;DHT22;13779;-33.886;151.198;2022-12-18T13:36:32;16.50;99.90
25991;DHT22;13779;-33.886;151.198;2022-12-18T13:44:39;16.60;99.90
25991;DHT22;13779;-33.886;151.198;2022-12-18T13:47:34;16.60;99.90
25991;DHT22;13779;-33.886;151.198;2022-12-18T13:50:27;16.60;99.90
25991;DHT22;13779;-33.886;151.198;2022-12-18T13:53:04;16.60;99.90
25991;DHT22;13779;-33.886;151.198;2022-12-18T13:55:35;16.60;99.90
25991;DHT22;13779;-33.886;151.198;2022-12-18T13:58:06;16.60;99.90
25991;DHT22;13779;-33.886;151.198;2022-12-18T14:00:42;16.60;99.90
25991;DHT22;13779;-33.886;151.198;2022-12-18T14:03:22;16.70;99.90
25991;DHT22;13779;-33.886;151.198;2022-12-18T14:06:05;16.70;99.90
25991;DHT22;13779;-33.886;151.198;2022-12-18T14:08:40;16.80;99.90
25991;DHT22;13779;-33.886;151.198;2022-12-18T14:11:23;16.80;99.90
25991;DHT22;13779;-33.886;151.198;2022-12-18T14:13:54;16.80;99.90
25991;DHT22;13779;-33.886;151.198;2022-12-18T14:16:25;16.80;99.90
25991;DHT22;13779;-33.886;151.198;2022-12-18T14:18:58;16.80;99.90
25991;DHT22;13779;-33.886;151.198;2022-12-18T14:21:30;16.80;99.90
25991;DHT22;13779;-33.886;151.198;2022-12-18T14:24:21;16.80;99.90
25991;DHT22;13779;-33.886;151.198;2022-12-18T14:26:52;16.80;99.90
25991;DHT22;13779;-33.886;151.198;2022-12-18T14:29:30;16.90;99.90
25991;DHT22;13779;-33.886;151.198;2022-12-18T14:32:15;16.80;99.90
25991;DHT22;13779;-33.886;151.198;2022-12-18T14:34:48;16.80;99.90
25991;DHT22;13779;-33.886;151.198;2022-12-18T14:37:24;16.80;99.90
25991;DHT22;13779;-33.886;151.198;2022-12-18T14:40:00;16.80;99.90
25991;DHT22;13779;-33.886;151.198;2022-12-18T14:42:38;16.80;99.90
25991;DHT22;13779;-33.886;151.198;2022-12-18T14:48:17;16.80;99.90
25991;DHT22;13779;-33.886;151.198;2022-12-18T14:51:01;16.90;99.90
25991;DHT22;13779;-33.886;151.198;2022-12-18T14:56:30;16.80;99.90
25991;DHT22;13779;-33.886;151.198;2022-12-18T14:59:03;16.90;99.90
25991;DHT22;13779;-33.886;151.198;2022-12-18T15:02:03;16.80;99.90
25991;DHT22;13779;-33.886;151.198;2022-12-18T15:04:39;16.90;99.90
25991;DHT22;13779;-33.886;151.198;2022-12-18T15:07:22;16.90;99.90
25991;DHT22;13779;-33.886;151.198;2022-12-18T15:10:22;17.00;99.90
25991;DHT22;13779;-33.886;151.198;2022-12-18T15:15:47;17.00;99.90
25991;DHT22;13779;-33.886;151.198;2022-12-18T15:18:29;17.00;99.90
25991;DHT22;13779;-33.886;151.198;2022-12-18T15:21:08;17.00;99.90
25991;DHT22;13779;-33.886;151.198;2022-12-18T15:23:47;17.00;99.90
25991;DHT22;13779;-33.886;151.198;2022-12-18T15:26:19;17.10;99.90
25991;DHT22;13779;-33.886;151.198;2022-12-18T15:28:57;17.10;99.90
25991;DHT22;13779;-33.886;151.198;2022-12-18T15:31:33;17.00;99.90
25991;DHT22;13779;-33.886;151.198;2022-12-18T15:34:23;17.10;99.90
25991;DHT22;13779;-33.886;151.198;2022-12-18T15:36:57;17.00;99.90
25991;DHT22;13779;-33.886;151.198;2022-12-18T15:39:28;17.00;99.90
25991;DHT22;13779;-33.886;151.198;2022-12-18T15:42:00;17.00;99.90
25991;DHT22;13779;-33.886;151.198;2022-12-18T15:44:48;17.00;99.90
25991;DHT22;13779;-33.886;151.198;2022-12-18T15:47:18;17.00;99.90
25991;DHT22;13779;-33.886;151.198;2022-12-18T15:49:48;17.00;99.90
25991;DHT22;13779;-33.886;151.198;2022-12-18T15:52:18;17.00;99.90
25991;DHT22;13779;-33.886;151.198;2022-12-18T15:54:55;16.90;99.90
25991;DHT22;13779;-33.886;151.198;2022-12-18T15:57:43;17.00;99.90
25991;DHT22;13779;-33.886;151.198;2022-12-18T16:00:14;17.00;99.90
25991;DHT22;13779;-33.886;151.198;2022-12-18T16:02:44;17.00;99.90
25991;DHT22;13779;-33.886;151.198;2022-12-18T16:05:16;17.00;99.90
25991;DHT22;13779;-33.886;151.198;2022-12-18T16:07:47;17.00;99.90
25991;DHT22;13779;-33.886;151.198;2022-12-18T16:10:18;17.00;99.90
25991;DHT22;13779;-33.886;151.198;2022-12-18T16:12:48;17.00;99.90
25991;DHT22;13779;-33.886;151.198;2022-12-18T16:15:18;17.00;99.90
25991;DHT22;13779;-33.886;151.198;2022-12-18T16:17:51;17.00;99.90
25991;DHT22;13779;-33.886;151.198;2022-12-18T16:20:22;17.00;99.90
25991;DHT22;13779;-33.886;151.198;2022-12-18T16:22:52;16.90;99.90
25991;DHT22;13779;-33.886;151.198;2022-12-18T16:25:26;17.00;99.90
25991;DHT22;13779;-33.886;151.198;2022-12-18T16:27:57;17.00;99.90
25991;DHT22;13779;-33.886;151.198;2022-12-18T16:30:30;16.90;99.90
25991;DHT22;13779;-33.886;151.198;2022-12-18T16:33:03;16.90;99.90
25991;DHT22;13779;-33.886;151.198;2022-12-18T16:35:35;16.90;99.90
25991;DHT22;13779;-33.886;151.198;2022-12-18T16:38:06;16.80;99.90
25991;DHT22;13779;-33.886;151.198;2022-12-18T16:40:38;16.90;99.90
25991;DHT22;13779;-33.886;151.198;2022-12-18T16:43:28;16.90;99.90
25991;DHT22;13779;-33.886;151.198;2022-12-18T16:45:59;16.90;99.90
25991;DHT22;13779;-33.886;151.198;2022-12-18T16:48:30;16.90;99.90
25991;DHT22;13779;-33.886;151.198;2022-12-18T16:51:02;16.90;99.90
25991;DHT22;13779;-33.886;151.198;2022-12-18T16:53:33;16.90;99.90
25991;DHT22;13779;-33.886;151.198;2022-12-18T16:56:04;17.00;99.90
25991;DHT22;13779;-33.886;151.198;2022-12-18T16:58:34;17.00;99.90
25991;DHT22;13779;-33.886;151.198;2022-12-18T17:01:11;17.00;99.90
25991;DHT22;13779;-33.886;151.198;2022-12-18T17:03:42;17.00;99.90
25991;DHT22;13779;-33.886;151.198;2022-12-18T17:06:13;17.00;99.90
25991;DHT22;13779;-33.886;151.198;2022-12-18T17:08:43;17.00;99.90
25991;DHT22;13779;-33.886;151.198;2022-12-18T17:11:14;17.00;99.90
25991;DHT22;13779;-33.886;151.198;2022-12-18T17:13:44;17.00;99.90
25991;DHT22;13779;-33.886;151.198;2022-12-18T17:16:15;17.00;99.90
25991;DHT22;13779;-33.886;151.198;2022-12-18T17:18:46;17.00;99.90
25991;DHT22;13779;-33.886;151.198;2022-12-18T17:21:17;17.00;99.90
25991;DHT22;13779;-33.886;151.198;2022-12-18T17:23:47;17.00;99.90
25991;DHT22;13779;-33.886;151.198;2022-12-18T17:26:18;16.90;99.90